sensor_id;sensor_type;location;lat;lon;timestamp;P1;durP1;ratioP1;P2;durP2;ratioP2
27939;SDS011;15275;51.716;14.324;2022-08-06T00:02:15;3.20;;;1.23;;
27939;SDS011;15275;51.716;14.324;2022-08-06T00:04:43;3.55;;;1.65;;
27939;SDS011;15275;51.716;14.324;2022-08-06T00:07:09;1.92;;;1.13;;
27939;SDS011;15275;51.716;14.324;2022-08-06T00:09:35;2.33;;;1.27;;
27939;SDS011;15275;51.716;14.324;2022-08-06T00:12:01;1.20;;;1.10;;
27939;SDS011;15275;51.716;14.324;2022-08-06T00:14:29;2.20;;;1.30;;
27939;SDS011;15275;51.716;14.324;2022-08-06T00:16:57;1.88;;;1.15;;
27939;SDS011;15275;51.716;14.324;2022-08-06T00:19:23;1.27;;;1.15;;
27939;SDS011;15275;51.716;14.324;2022-08-06T00:21:51;1.15;;;1.00;;
27939;SDS011;15275;51.716;14.324;2022-08-06T00:24:18;1.60;;;0.98;;
27939;SDS011;15275;51.716;14.324;2022-08-06T00:26:45;1.20;;;1.00;;
27939;SDS011;15275;51.716;14.324;2022-08-06T00:29:11;2.55;;;1.17;;
27939;SDS011;15275;51.716;14.324;2022-08-06T00:31:38;2.05;;;1.20;;
27939;SDS011;15275;51.716;14.324;2022-08-06T00:34:04;2.00;;;1.38;;
27939;SDS011;15275;51.716;14.324;2022-08-06T00:36:31;1.10;;;1.00;;
27939;SDS011;15275;51.716;14.324;2022-08-06T00:38:58;2.13;;;1.55;;
27939;SDS011;15275;51.716;14.324;2022-08-06T00:41:28;5.88;;;1.60;;
27939;SDS011;15275;51.716;14.324;2022-08-06T00:43:55;1.88;;;1.23;;
27939;SDS011;15275;51.716;14.324;2022-08-06T00:46:24;1.83;;;1.50;;
27939;SDS011;15275;51.716;14.324;2022-08-06T00:48:51;2.03;;;1.38;;
27939;SDS011;15275;51.716;14.324;2022-08-06T00:51:18;2.90;;;1.35;;
27939;SDS011;15275;51.716;14.324;2022-08-06T00:53:44;2.10;;;1.35;;
27939;SDS011;15275;51.716;14.324;2022-08-06T00:56:10;3.00;;;1.17;;
27939;SDS011;15275;51.716;14.324;2022-08-06T00:58:36;1.58;;;1.30;;
27939;SDS011;15275;51.716;14.324;2022-08-06T01:01:03;1.45;;;1.25;;
27939;SDS011;15275;51.716;14.324;2022-08-06T01:03:29;2.40;;;1.25;;
27939;SDS011;15275;51.716;14.324;2022-08-06T01:05:55;2.08;;;1.35;;
27939;SDS011;15275;51.716;14.324;2022-08-06T01:08:21;1.20;;;1.10;;
27939;SDS011;15275;51.716;14.324;2022-08-06T01:10:47;1.35;;;1.25;;
27939;SDS011;15275;51.716;14.324;2022-08-06T01:13:13;2.17;;;1.02;;
27939;SDS011;15275;51.716;14.324;2022-08-06T01:15:40;2.10;;;1.38;;
27939;SDS011;15275;51.716;14.324;2022-08-06T01:18:25;3.47;;;1.35;;
27939;SDS011;15275;51.716;14.324;2022-08-06T01:30:07;2.72;;;1.30;;
27939;SDS011;15275;51.716;14.324;2022-08-06T01:32:40;1.13;;;0.93;;
27939;SDS011;15275;51.716;14.324;2022-08-06T01:35:23;0.90;;;0.90;;
27939;SDS011;15275;51.716;14.324;2022-08-06T01:40:52;1.02;;;0.93;;
27939;SDS011;15275;51.716;14.324;2022-08-06T01:43:20;1.90;;;1.13;;
27939;SDS011;15275;51.716;14.324;2022-08-06T01:45:49;2.08;;;1.00;;
27939;SDS011;15275;51.716;14.324;2022-08-06T01:48:19;1.55;;;1.10;;
27939;SDS011;15275;51.716;14.324;2022-08-06T01:50:50;1.30;;;0.98;;
27939;SDS011;15275;51.716;14.324;2022-08-06T01:53:32;1.35;;;0.90;;
27939;SDS011;15275;51.716;14.324;2022-08-06T01:56:02;1.30;;;1.00;;
27939;SDS011;15275;51.716;14.324;2022-08-06T01:58:34;2.05;;;0.98;;
27939;SDS011;15275;51.716;14.324;2022-08-06T02:01:07;0.95;;;0.75;;
27939;SDS011;15275;51.716;14.324;2022-08-06T02:03:41;1.50;;;1.00;;
27939;SDS011;15275;51.716;14.324;2022-08-06T02:06:14;1.05;;;0.80;;
27939;SDS011;15275;51.716;14.324;2022-08-06T02:08:46;1.35;;;0.88;;
27939;SDS011;15275;51.716;14.324;2022-08-06T02:11:14;2.33;;;0.98;;
27939;SDS011;15275;51.716;14.324;2022-08-06T02:13:40;3.17;;;0.82;;
27939;SDS011;15275;51.716;14.324;2022-08-06T02:16:08;2.08;;;0.90;;
27939;SDS011;15275;51.716;14.324;2022-08-06T02:18:37;2.35;;;1.13;;
27939;SDS011;15275;51.716;14.324;2022-08-06T02:21:10;0.88;;;0.80;;
27939;SDS011;15275;51.716;14.324;2022-08-06T02:23:43;0.98;;;0.60;;
27939;SDS011;15275;51.716;14.324;2022-08-06T02:26:10;1.17;;;0.85;;
27939;SDS011;15275;51.716;14.324;2022-08-06T02:28:38;4.32;;;0.80;;
27939;SDS011;15275;51.716;14.324;2022-08-06T02:31:06;1.13;;;0.90;;
27939;SDS011;15275;51.716;14.324;2022-08-06T02:33:33;1.80;;;0.90;;
27939;SDS011;15275;51.716;14.324;2022-08-06T02:38:26;1.98;;;0.88;;
27939;SDS011;15275;51.716;14.324;2022-08-06T02:41:20;3.53;;;1.83;;
27939;SDS011;15275;51.716;14.324;2022-08-06T02:44:03;1.42;;;0.90;;
27939;SDS011;15275;51.716;14.324;2022-08-06T02:49:28;0.77;;;0.77;;
27939;SDS011;15275;51.716;14.324;2022-08-06T02:52:04;1.63;;;0.73;;
27939;SDS011;15275;51.716;14.324;2022-08-06T02:57:23;1.52;;;0.85;;
27939;SDS011;15275;51.716;14.324;2022-08-06T02:59:57;1.63;;;0.65;;
27939;SDS011;15275;51.716;14.324;2022-08-06T03:02:32;0.77;;;0.70;;
27939;SDS011;15275;51.716;14.324;2022-08-06T03:05:01;0.73;;;0.70;;
27939;SDS011;15275;51.716;14.324;2022-08-06T03:07:31;2.75;;;0.63;;
27939;SDS011;15275;51.716;14.324;2022-08-06T03:09:59;2.00;;;0.70;;
27939;SDS011;15275;51.716;14.324;2022-08-06T03:12:26;1.38;;;0.52;;
27939;SDS011;15275;51.716;14.324;2022-08-06T03:14:53;0.50;;;0.50;;
27939;SDS011;15275;51.716;14.324;2022-08-06T03:17:21;0.73;;;0.55;;
27939;SDS011;15275;51.716;14.324;2022-08-06T03:19:48;1.15;;;0.52;;
27939;SDS011;15275;51.716;14.324;2022-08-06T03:22:16;2.15;;;0.70;;
27939;SDS011;15275;51.716;14.324;2022-08-06T03:24:44;1.27;;;0.40;;
27939;SDS011;15275;51.716;14.324;2022-08-06T03:27:11;1.48;;;0.60;;
27939;SDS011;15275;51.716;14.324;2022-08-06T03:29:40;1.40;;;0.60;;
27939;SDS011;15275;51.716;14.324;2022-08-06T03:32:08;1.60;;;0.70;;
27939;SDS011;15275;51.716;14.324;2022-08-06T03:34:36;1.02;;;0.57;;
27939;SDS011;15275;51.716;14.324;2022-08-06T03:37:03;0.90;;;0.50;;
27939;SDS011;15275;51.716;14.324;2022-08-06T03:39:32;0.73;;;0.60;;
27939;SDS011;15275;51.716;14.324;2022-08-06T03:41:59;0.55;;;0.55;;
27939;SDS011;15275;51.716;14.324;2022-08-06T03:44:25;2.63;;;0.70;;
27939;SDS011;15275;51.716;14.324;2022-08-06T03:46:52;1.70;;;0.45;;
27939;SDS011;15275;51.716;14.324;2022-08-06T03:49:35;0.82;;;0.50;;
27939;SDS011;15275;51.716;14.324;2022-08-06T03:52:08;1.15;;;0.57;;
27939;SDS011;15275;51.716;14.324;2022-08-06T03:54:43;1.17;;;0.57;;
27939;SDS011;15275;51.716;14.324;2022-08-06T03:57:15;1.20;;;0.52;;
27939;SDS011;15275;51.716;14.324;2022-08-06T03:59:46;1.10;;;0.50;;
27939;SDS011;15275;51.716;14.324;2022-08-06T04:02:15;0.73;;;0.50;;
27939;SDS011;15275;51.716;14.324;2022-08-06T04:04:42;0.30;;;0.30;;
27939;SDS011;15275;51.716;14.324;2022-08-06T04:07:10;1.38;;;0.43;;
27939;SDS011;15275;51.716;14.324;2022-08-06T04:09:39;0.88;;;0.60;;
27939;SDS011;15275;51.716;14.324;2022-08-06T04:12:07;0.50;;;0.50;;
27939;SDS011;15275;51.716;14.324;2022-08-06T04:14:33;0.73;;;0.52;;
27939;SDS011;15275;51.716;14.324;2022-08-06T04:17:00;0.40;;;0.40;;
27939;SDS011;15275;51.716;14.324;2022-08-06T04:19:29;1.05;;;0.50;;
27939;SDS011;15275;51.716;14.324;2022-08-06T04:21:57;0.65;;;0.40;;
27939;SDS011;15275;51.716;14.324;2022-08-06T04:24:23;0.43;;;0.40;;
27939;SDS011;15275;51.716;14.324;2022-08-06T04:26:51;0.52;;;0.50;;
27939;SDS011;15275;51.716;14.324;2022-08-06T04:29:20;0.50;;;0.50;;
27939;SDS011;15275;51.716;14.324;2022-08-06T04:31:48;1.95;;;0.63;;
27939;SDS011;15275;51.716;14.324;2022-08-06T04:34:22;1.17;;;0.50;;
27939;SDS011;15275;51.716;14.324;2022-08-06T04:36:50;0.50;;;0.50;;
27939;SDS011;15275;51.716;14.324;2022-08-06T04:39:16;0.50;;;0.50;;
27939;SDS011;15275;51.716;14.324;2022-08-06T04:41:43;2.08;;;0.57;;
27939;SDS011;15275;51.716;14.324;2022-08-06T04:44:10;3.17;;;0.70;;
27939;SDS011;15275;51.716;14.324;2022-08-06T04:46:37;1.63;;;0.70;;
27939;SDS011;15275;51.716;14.324;2022-08-06T04:49:03;2.45;;;0.60;;
27939;SDS011;15275;51.716;14.324;2022-08-06T04:51:29;1.33;;;0.80;;
27939;SDS011;15275;51.716;14.324;2022-08-06T04:53:55;1.40;;;0.55;;
27939;SDS011;15275;51.716;14.324;2022-08-06T04:56:22;0.68;;;0.60;;
27939;SDS011;15275;51.716;14.324;2022-08-06T04:58:48;0.60;;;0.50;;
27939;SDS011;15275;51.716;14.324;2022-08-06T05:01:14;1.65;;;0.68;;
27939;SDS011;15275;51.716;14.324;2022-08-06T05:03:40;0.55;;;0.50;;
27939;SDS011;15275;51.716;14.324;2022-08-06T05:06:13;5.07;;;0.70;;
27939;SDS011;15275;51.716;14.324;2022-08-06T05:09:00;0.80;;;0.43;;
27939;SDS011;15275;51.716;14.324;2022-08-06T05:11:36;2.15;;;0.50;;
27939;SDS011;15275;51.716;14.324;2022-08-06T05:14:11;0.70;;;0.50;;
27939;SDS011;15275;51.716;14.324;2022-08-06T05:16:41;0.65;;;0.50;;
27939;SDS011;15275;51.716;14.324;2022-08-06T05:19:22;2.40;;;0.70;;
27939;SDS011;15275;51.716;14.324;2022-08-06T05:21:55;1.10;;;0.63;;
27939;SDS011;15275;51.716;14.324;2022-08-06T05:24:22;0.45;;;0.43;;
27939;SDS011;15275;51.716;14.324;2022-08-06T05:26:48;1.50;;;0.57;;
27939;SDS011;15275;51.716;14.324;2022-08-06T05:29:18;0.93;;;0.60;;
27939;SDS011;15275;51.716;14.324;2022-08-06T05:31:45;1.05;;;0.45;;
27939;SDS011;15275;51.716;14.324;2022-08-06T05:34:12;1.02;;;0.47;;
27939;SDS011;15275;51.716;14.324;2022-08-06T05:36:39;0.75;;;0.65;;
27939;SDS011;15275;51.716;14.324;2022-08-06T05:39:05;3.22;;;0.60;;
27939;SDS011;15275;51.716;14.324;2022-08-06T05:41:32;1.10;;;0.47;;
27939;SDS011;15275;51.716;14.324;2022-08-06T05:44:01;1.67;;;0.70;;
27939;SDS011;15275;51.716;14.324;2022-08-06T05:47:02;0.98;;;0.50;;
27939;SDS011;15275;51.716;14.324;2022-08-06T05:49:34;2.42;;;0.65;;
27939;SDS011;15275;51.716;14.324;2022-08-06T05:54:52;1.33;;;0.57;;
27939;SDS011;15275;51.716;14.324;2022-08-06T05:57:58;1.45;;;0.70;;
27939;SDS011;15275;51.716;14.324;2022-08-06T06:00:27;1.10;;;0.68;;
27939;SDS011;15275;51.716;14.324;2022-08-06T06:02:57;0.88;;;0.70;;
27939;SDS011;15275;51.716;14.324;2022-08-06T06:05:25;1.75;;;0.57;;
27939;SDS011;15275;51.716;14.324;2022-08-06T06:07:52;1.70;;;0.57;;
27939;SDS011;15275;51.716;14.324;2022-08-06T06:10:20;0.57;;;0.57;;
27939;SDS011;15275;51.716;14.324;2022-08-06T06:12:48;0.47;;;0.40;;
27939;SDS011;15275;51.716;14.324;2022-08-06T06:15:15;1.25;;;0.60;;
27939;SDS011;15275;51.716;14.324;2022-08-06T06:23:15;0.40;;;0.40;;
27939;SDS011;15275;51.716;14.324;2022-08-06T06:26:03;0.30;;;0.30;;
27939;SDS011;15275;51.716;14.324;2022-08-06T06:31:47;3.15;;;0.70;;
27939;SDS011;15275;51.716;14.324;2022-08-06T06:37:19;1.17;;;0.50;;
27939;SDS011;15275;51.716;14.324;2022-08-06T06:42:59;0.60;;;0.52;;
27939;SDS011;15275;51.716;14.324;2022-08-06T06:48:45;1.70;;;0.70;;
27939;SDS011;15275;51.716;14.324;2022-08-06T06:51:26;0.77;;;0.65;;
27939;SDS011;15275;51.716;14.324;2022-08-06T06:53:57;0.85;;;0.38;;
27939;SDS011;15275;51.716;14.324;2022-08-06T06:56:25;1.08;;;0.52;;
27939;SDS011;15275;51.716;14.324;2022-08-06T06:58:58;4.50;;;0.60;;
27939;SDS011;15275;51.716;14.324;2022-08-06T07:01:42;0.90;;;0.68;;
27939;SDS011;15275;51.716;14.324;2022-08-06T07:04:10;2.60;;;0.60;;
27939;SDS011;15275;51.716;14.324;2022-08-06T07:06:40;1.48;;;0.70;;
27939;SDS011;15275;51.716;14.324;2022-08-06T07:09:09;2.83;;;0.65;;
27939;SDS011;15275;51.716;14.324;2022-08-06T07:11:45;2.60;;;0.70;;
27939;SDS011;15275;51.716;14.324;2022-08-06T07:14:13;2.15;;;0.70;;
27939;SDS011;15275;51.716;14.324;2022-08-06T07:16:41;2.60;;;0.60;;
27939;SDS011;15275;51.716;14.324;2022-08-06T07:19:09;1.33;;;0.80;;
27939;SDS011;15275;51.716;14.324;2022-08-06T07:21:35;1.85;;;0.65;;
27939;SDS011;15275;51.716;14.324;2022-08-06T07:24:05;0.95;;;0.50;;
27939;SDS011;15275;51.716;14.324;2022-08-06T07:26:32;1.13;;;0.57;;
27939;SDS011;15275;51.716;14.324;2022-08-06T07:28:59;1.35;;;0.60;;
27939;SDS011;15275;51.716;14.324;2022-08-06T07:31:27;1.15;;;0.52;;
27939;SDS011;15275;51.716;14.324;2022-08-06T07:33:54;5.40;;;1.00;;
27939;SDS011;15275;51.716;14.324;2022-08-06T07:36:23;1.42;;;0.75;;
27939;SDS011;15275;51.716;14.324;2022-08-06T07:38:53;1.00;;;0.43;;
27939;SDS011;15275;51.716;14.324;2022-08-06T07:41:26;2.83;;;0.60;;
27939;SDS011;15275;51.716;14.324;2022-08-06T07:43:53;0.90;;;0.60;;
27939;SDS011;15275;51.716;14.324;2022-08-06T07:46:25;1.70;;;0.68;;
27939;SDS011;15275;51.716;14.324;2022-08-06T07:48:57;1.50;;;0.87;;
27939;SDS011;15275;51.716;14.324;2022-08-06T07:51:33;2.50;;;1.00;;
27939;SDS011;15275;51.716;14.324;2022-08-06T07:54:02;1.02;;;0.55;;
27939;SDS011;15275;51.716;14.324;2022-08-06T07:56:30;0.50;;;0.40;;
27939;SDS011;15275;51.716;14.324;2022-08-06T07:59:00;1.38;;;0.60;;
27939;SDS011;15275;51.716;14.324;2022-08-06T08:01:27;1.13;;;0.77;;
27939;SDS011;15275;51.716;14.324;2022-08-06T08:03:54;6.45;;;0.73;;
27939;SDS011;15275;51.716;14.324;2022-08-06T08:06:39;1.70;;;0.73;;
27939;SDS011;15275;51.716;14.324;2022-08-06T08:09:09;0.95;;;0.63;;
27939;SDS011;15275;51.716;14.324;2022-08-06T08:11:42;1.33;;;0.80;;
27939;SDS011;15275;51.716;14.324;2022-08-06T08:14:12;0.75;;;0.70;;
27939;SDS011;15275;51.716;14.324;2022-08-06T08:16:41;0.73;;;0.52;;
27939;SDS011;15275;51.716;14.324;2022-08-06T08:21:57;1.20;;;0.50;;
27939;SDS011;15275;51.716;14.324;2022-08-06T08:24:28;2.75;;;0.60;;
27939;SDS011;15275;51.716;14.324;2022-08-06T08:26:56;0.60;;;0.52;;
27939;SDS011;15275;51.716;14.324;2022-08-06T08:29:23;1.90;;;0.52;;
27939;SDS011;15275;51.716;14.324;2022-08-06T08:31:49;2.40;;;0.75;;
27939;SDS011;15275;51.716;14.324;2022-08-06T08:34:15;1.25;;;0.50;;
27939;SDS011;15275;51.716;14.324;2022-08-06T08:36:41;1.27;;;0.80;;
27939;SDS011;15275;51.716;14.324;2022-08-06T08:39:07;3.10;;;0.73;;
27939;SDS011;15275;51.716;14.324;2022-08-06T08:41:34;6.97;;;0.60;;
27939;SDS011;15275;51.716;14.324;2022-08-06T08:44:06;0.50;;;0.40;;
27939;SDS011;15275;51.716;14.324;2022-08-06T08:46:43;4.30;;;0.75;;
27939;SDS011;15275;51.716;14.324;2022-08-06T08:49:19;1.15;;;0.50;;
27939;SDS011;15275;51.716;14.324;2022-08-06T08:52:01;0.38;;;0.38;;
27939;SDS011;15275;51.716;14.324;2022-08-06T08:54:29;0.75;;;0.60;;
27939;SDS011;15275;51.716;14.324;2022-08-06T08:57:01;1.35;;;0.50;;
27939;SDS011;15275;51.716;14.324;2022-08-06T08:59:29;0.55;;;0.45;;
27939;SDS011;15275;51.716;14.324;2022-08-06T09:01:56;0.40;;;0.40;;
27939;SDS011;15275;51.716;14.324;2022-08-06T09:04:23;0.65;;;0.40;;
27939;SDS011;15275;51.716;14.324;2022-08-06T09:06:51;0.98;;;0.50;;
27939;SDS011;15275;51.716;14.324;2022-08-06T09:09:17;0.75;;;0.60;;
27939;SDS011;15275;51.716;14.324;2022-08-06T09:11:43;1.65;;;0.60;;
27939;SDS011;15275;51.716;14.324;2022-08-06T09:14:10;0.77;;;0.70;;
27939;SDS011;15275;51.716;14.324;2022-08-06T09:16:36;0.93;;;0.50;;
27939;SDS011;15275;51.716;14.324;2022-08-06T09:19:03;0.65;;;0.35;;
27939;SDS011;15275;51.716;14.324;2022-08-06T09:21:30;0.98;;;0.60;;
27939;SDS011;15275;51.716;14.324;2022-08-06T09:23:57;1.13;;;0.50;;
27939;SDS011;15275;51.716;14.324;2022-08-06T09:26:24;1.20;;;0.43;;
27939;SDS011;15275;51.716;14.324;2022-08-06T09:28:51;0.30;;;0.30;;
27939;SDS011;15275;51.716;14.324;2022-08-06T09:31:19;0.55;;;0.40;;
27939;SDS011;15275;51.716;14.324;2022-08-06T09:33:53;1.52;;;0.52;;
27939;SDS011;15275;51.716;14.324;2022-08-06T09:36:26;0.63;;;0.45;;
27939;SDS011;15275;51.716;14.324;2022-08-06T09:41:23;1.42;;;0.57;;
27939;SDS011;15275;51.716;14.324;2022-08-06T09:43:51;1.42;;;0.77;;
27939;SDS011;15275;51.716;14.324;2022-08-06T09:49:12;0.93;;;0.40;;
27939;SDS011;15275;51.716;14.324;2022-08-06T09:51:40;0.70;;;0.60;;
27939;SDS011;15275;51.716;14.324;2022-08-06T09:54:08;0.82;;;0.50;;
27939;SDS011;15275;51.716;14.324;2022-08-06T09:56:41;1.38;;;0.80;;
27939;SDS011;15275;51.716;14.324;2022-08-06T09:59:10;1.40;;;0.60;;
27939;SDS011;15275;51.716;14.324;2022-08-06T10:01:43;1.25;;;0.52;;
27939;SDS011;15275;51.716;14.324;2022-08-06T10:06:52;1.17;;;0.50;;
27939;SDS011;15275;51.716;14.324;2022-08-06T10:09:23;0.45;;;0.40;;
27939;SDS011;15275;51.716;14.324;2022-08-06T10:11:49;0.90;;;0.50;;
27939;SDS011;15275;51.716;14.324;2022-08-06T10:17:09;0.55;;;0.50;;
27939;SDS011;15275;51.716;14.324;2022-08-06T10:19:42;1.98;;;0.40;;
27939;SDS011;15275;51.716;14.324;2022-08-06T10:22:11;2.00;;;0.50;;
27939;SDS011;15275;51.716;14.324;2022-08-06T10:24:43;0.50;;;0.35;;
27939;SDS011;15275;51.716;14.324;2022-08-06T10:27:21;0.73;;;0.30;;
27939;SDS011;15275;51.716;14.324;2022-08-06T10:29:51;1.02;;;0.32;;
27939;SDS011;15275;51.716;14.324;2022-08-06T10:32:30;1.55;;;0.75;;
27939;SDS011;15275;51.716;14.324;2022-08-06T10:35:16;1.73;;;0.47;;
27939;SDS011;15275;51.716;14.324;2022-08-06T10:37:47;1.48;;;0.35;;
27939;SDS011;15275;51.716;14.324;2022-08-06T10:40:19;3.42;;;0.70;;
27939;SDS011;15275;51.716;14.324;2022-08-06T10:42:46;1.20;;;0.40;;
27939;SDS011;15275;51.716;14.324;2022-08-06T10:45:12;1.73;;;0.35;;
27939;SDS011;15275;51.716;14.324;2022-08-06T10:47:43;1.60;;;0.40;;
27939;SDS011;15275;51.716;14.324;2022-08-06T10:50:12;0.75;;;0.50;;
27939;SDS011;15275;51.716;14.324;2022-08-06T10:52:39;0.65;;;0.38;;
27939;SDS011;15275;51.716;14.324;2022-08-06T10:55:08;0.70;;;0.30;;
27939;SDS011;15275;51.716;14.324;2022-08-06T10:57:35;0.80;;;0.28;;
27939;SDS011;15275;51.716;14.324;2022-08-06T11:00:05;0.45;;;0.40;;
27939;SDS011;15275;51.716;14.324;2022-08-06T11:05:38;0.68;;;0.40;;
27939;SDS011;15275;51.716;14.324;2022-08-06T11:08:09;1.98;;;0.60;;
27939;SDS011;15275;51.716;14.324;2022-08-06T11:13:56;1.45;;;0.60;;
27939;SDS011;15275;51.716;14.324;2022-08-06T11:16:32;0.50;;;0.38;;
27939;SDS011;15275;51.716;14.324;2022-08-06T11:19:04;1.25;;;0.40;;
27939;SDS011;15275;51.716;14.324;2022-08-06T11:21:39;0.50;;;0.30;;
27939;SDS011;15275;51.716;14.324;2022-08-06T11:24:11;0.50;;;0.50;;
27939;SDS011;15275;51.716;14.324;2022-08-06T11:26:40;4.57;;;0.40;;
27939;SDS011;15275;51.716;14.324;2022-08-06T11:29:09;0.40;;;0.40;;
27939;SDS011;15275;51.716;14.324;2022-08-06T11:31:47;1.17;;;0.43;;
27939;SDS011;15275;51.716;14.324;2022-08-06T11:34:19;1.15;;;0.60;;
27939;SDS011;15275;51.716;14.324;2022-08-06T11:36:47;0.50;;;0.32;;
27939;SDS011;15275;51.716;14.324;2022-08-06T11:39:20;0.47;;;0.28;;
27939;SDS011;15275;51.716;14.324;2022-08-06T11:41:53;0.55;;;0.38;;
27939;SDS011;15275;51.716;14.324;2022-08-06T11:44:31;1.40;;;0.30;;
27939;SDS011;15275;51.716;14.324;2022-08-06T11:47:06;1.17;;;0.55;;
27939;SDS011;15275;51.716;14.324;2022-08-06T11:49:39;0.55;;;0.52;;
27939;SDS011;15275;51.716;14.324;2022-08-06T11:52:07;1.40;;;0.85;;
27939;SDS011;15275;51.716;14.324;2022-08-06T11:54:58;0.63;;;0.40;;
27939;SDS011;15275;51.716;14.324;2022-08-06T11:57:31;0.98;;;0.45;;
27939;SDS011;15275;51.716;14.324;2022-08-06T12:13:54;0.40;;;0.40;;
27939;SDS011;15275;51.716;14.324;2022-08-06T12:16:25;0.63;;;0.40;;
27939;SDS011;15275;51.716;14.324;2022-08-06T12:18:56;1.25;;;0.30;;
27939;SDS011;15275;51.716;14.324;2022-08-06T12:21:23;1.88;;;0.63;;
27939;SDS011;15275;51.716;14.324;2022-08-06T12:23:50;1.45;;;0.73;;
27939;SDS011;15275;51.716;14.324;2022-08-06T12:26:18;1.13;;;0.60;;
27939;SDS011;15275;51.716;14.324;2022-08-06T12:28:47;1.42;;;0.70;;
27939;SDS011;15275;51.716;14.324;2022-08-06T12:31:27;3.03;;;0.60;;
27939;SDS011;15275;51.716;14.324;2022-08-06T12:33:54;3.50;;;0.43;;
27939;SDS011;15275;51.716;14.324;2022-08-06T12:36:20;1.77;;;0.60;;
27939;SDS011;15275;51.716;14.324;2022-08-06T12:38:54;0.80;;;0.50;;
27939;SDS011;15275;51.716;14.324;2022-08-06T12:41:22;1.25;;;0.50;;
27939;SDS011;15275;51.716;14.324;2022-08-06T12:43:48;1.02;;;0.30;;
27939;SDS011;15275;51.716;14.324;2022-08-06T12:46:13;0.85;;;0.40;;
27939;SDS011;15275;51.716;14.324;2022-08-06T12:48:44;0.50;;;0.50;;
27939;SDS011;15275;51.716;14.324;2022-08-06T12:51:13;1.00;;;0.50;;
27939;SDS011;15275;51.716;14.324;2022-08-06T12:53:47;1.08;;;0.50;;
27939;SDS011;15275;51.716;14.324;2022-08-06T12:56:19;0.88;;;0.50;;
27939;SDS011;15275;51.716;14.324;2022-08-06T12:58:48;0.93;;;0.40;;
27939;SDS011;15275;51.716;14.324;2022-08-06T13:01:17;2.92;;;0.75;;
27939;SDS011;15275;51.716;14.324;2022-08-06T13:03:49;0.95;;;0.50;;
27939;SDS011;15275;51.716;14.324;2022-08-06T13:06:19;0.47;;;0.47;;
27939;SDS011;15275;51.716;14.324;2022-08-06T13:08:49;0.55;;;0.30;;
27939;SDS011;15275;51.716;14.324;2022-08-06T13:11:18;1.20;;;0.50;;
27939;SDS011;15275;51.716;14.324;2022-08-06T13:13:50;1.80;;;0.50;;
27939;SDS011;15275;51.716;14.324;2022-08-06T13:16:17;1.27;;;0.53;;
27939;SDS011;15275;51.716;14.324;2022-08-06T13:21:36;2.95;;;0.52;;
27939;SDS011;15275;51.716;14.324;2022-08-06T13:24:04;0.65;;;0.57;;
27939;SDS011;15275;51.716;14.324;2022-08-06T13:26:34;1.00;;;0.38;;
27939;SDS011;15275;51.716;14.324;2022-08-06T13:29:20;1.70;;;0.40;;
27939;SDS011;15275;51.716;14.324;2022-08-06T13:31:57;0.77;;;0.40;;
27939;SDS011;15275;51.716;14.324;2022-08-06T13:34:44;0.90;;;0.40;;
27939;SDS011;15275;51.716;14.324;2022-08-06T13:37:17;3.28;;;0.65;;
27939;SDS011;15275;51.716;14.324;2022-08-06T13:40:17;1.75;;;0.47;;
27939;SDS011;15275;51.716;14.324;2022-08-06T13:42:56;3.90;;;0.52;;
27939;SDS011;15275;51.716;14.324;2022-08-06T13:45:25;0.47;;;0.40;;
27939;SDS011;15275;51.716;14.324;2022-08-06T13:48:02;1.70;;;0.45;;
27939;SDS011;15275;51.716;14.324;2022-08-06T13:50:44;2.13;;;0.55;;
27939;SDS011;15275;51.716;14.324;2022-08-06T13:53:11;0.65;;;0.50;;
27939;SDS011;15275;51.716;14.324;2022-08-06T13:55:38;0.40;;;0.40;;
27939;SDS011;15275;51.716;14.324;2022-08-06T13:58:08;0.65;;;0.50;;
27939;SDS011;15275;51.716;14.324;2022-08-06T14:00:35;1.75;;;0.40;;
27939;SDS011;15275;51.716;14.324;2022-08-06T14:03:02;1.65;;;0.55;;
27939;SDS011;15275;51.716;14.324;2022-08-06T14:05:29;0.52;;;0.50;;
27939;SDS011;15275;51.716;14.324;2022-08-06T14:07:55;0.70;;;0.40;;
27939;SDS011;15275;51.716;14.324;2022-08-06T14:10:21;1.35;;;0.45;;
27939;SDS011;15275;51.716;14.324;2022-08-06T14:12:47;1.40;;;0.50;;
27939;SDS011;15275;51.716;14.324;2022-08-06T14:15:32;2.25;;;0.70;;
27939;SDS011;15275;51.716;14.324;2022-08-06T14:17:59;1.55;;;0.45;;
27939;SDS011;15275;51.716;14.324;2022-08-06T14:20:25;1.60;;;0.60;;
27939;SDS011;15275;51.716;14.324;2022-08-06T14:22:54;0.73;;;0.50;;
27939;SDS011;15275;51.716;14.324;2022-08-06T14:25:21;5.03;;;0.50;;
27939;SDS011;15275;51.716;14.324;2022-08-06T14:27:48;0.50;;;0.50;;
27939;SDS011;15275;51.716;14.324;2022-08-06T14:30:14;1.50;;;0.60;;
27939;SDS011;15275;51.716;14.324;2022-08-06T14:32:42;1.15;;;0.60;;
27939;SDS011;15275;51.716;14.324;2022-08-06T14:35:09;1.08;;;0.60;;
27939;SDS011;15275;51.716;14.324;2022-08-06T14:37:35;0.35;;;0.32;;
27939;SDS011;15275;51.716;14.324;2022-08-06T14:40:02;0.60;;;0.50;;
27939;SDS011;15275;51.716;14.324;2022-08-06T14:42:29;0.80;;;0.57;;
27939;SDS011;15275;51.716;14.324;2022-08-06T14:45:13;0.60;;;0.50;;
27939;SDS011;15275;51.716;14.324;2022-08-06T14:47:40;0.57;;;0.50;;
27939;SDS011;15275;51.716;14.324;2022-08-06T14:50:06;2.00;;;0.50;;
27939;SDS011;15275;51.716;14.324;2022-08-06T14:52:33;0.63;;;0.32;;
27939;SDS011;15275;51.716;14.324;2022-08-06T14:54:59;1.38;;;0.50;;
27939;SDS011;15275;51.716;14.324;2022-08-06T14:57:26;0.93;;;0.63;;
27939;SDS011;15275;51.716;14.324;2022-08-06T14:59:53;0.75;;;0.45;;
27939;SDS011;15275;51.716;14.324;2022-08-06T15:02:20;1.95;;;0.68;;
27939;SDS011;15275;51.716;14.324;2022-08-06T15:04:47;0.80;;;0.60;;
27939;SDS011;15275;51.716;14.324;2022-08-06T15:07:13;0.88;;;0.70;;
27939;SDS011;15275;51.716;14.324;2022-08-06T15:09:39;1.10;;;0.60;;
27939;SDS011;15275;51.716;14.324;2022-08-06T15:12:05;0.40;;;0.40;;
27939;SDS011;15275;51.716;14.324;2022-08-06T15:14:31;0.63;;;0.40;;
27939;SDS011;15275;51.716;14.324;2022-08-06T15:16:57;1.17;;;0.70;;
27939;SDS011;15275;51.716;14.324;2022-08-06T15:19:23;0.57;;;0.43;;
27939;SDS011;15275;51.716;14.324;2022-08-06T15:21:49;1.48;;;0.57;;
27939;SDS011;15275;51.716;14.324;2022-08-06T15:24:15;1.10;;;0.50;;
27939;SDS011;15275;51.716;14.324;2022-08-06T15:26:41;2.67;;;0.63;;
27939;SDS011;15275;51.716;14.324;2022-08-06T15:29:07;0.95;;;0.40;;
27939;SDS011;15275;51.716;14.324;2022-08-06T15:31:33;1.27;;;0.57;;
27939;SDS011;15275;51.716;14.324;2022-08-06T15:33:59;0.52;;;0.52;;
27939;SDS011;15275;51.716;14.324;2022-08-06T15:36:25;0.60;;;0.60;;
27939;SDS011;15275;51.716;14.324;2022-08-06T15:38:51;3.28;;;2.97;;
27939;SDS011;15275;51.716;14.324;2022-08-06T15:41:18;7.30;;;5.75;;
27939;SDS011;15275;51.716;14.324;2022-08-06T15:43:48;3.75;;;2.95;;
27939;SDS011;15275;51.716;14.324;2022-08-06T15:46:16;2.95;;;1.10;;
27939;SDS011;15275;51.716;14.324;2022-08-06T15:48:43;4.30;;;1.88;;
27939;SDS011;15275;51.716;14.324;2022-08-06T15:51:09;1.13;;;0.80;;
27939;SDS011;15275;51.716;14.324;2022-08-06T15:53:35;1.75;;;1.20;;
27939;SDS011;15275;51.716;14.324;2022-08-06T15:56:01;3.05;;;2.40;;
27939;SDS011;15275;51.716;14.324;2022-08-06T15:58:27;1.40;;;1.27;;
27939;SDS011;15275;51.716;14.324;2022-08-06T16:00:53;1.92;;;0.90;;
27939;SDS011;15275;51.716;14.324;2022-08-06T16:03:19;1.05;;;0.65;;
27939;SDS011;15275;51.716;14.324;2022-08-06T16:05:45;1.35;;;0.70;;
27939;SDS011;15275;51.716;14.324;2022-08-06T16:08:11;0.55;;;0.50;;